sensor_id;sensor_type;location;lat;lon;timestamp;temperature;humidity
20057;DHT22;10189;49.546;7.906;2023-02-01T00:00:44;3.60;99.90
20057;DHT22;10189;49.546;7.906;2023-02-01T00:03:09;3.60;99.90
20057;DHT22;10189;49.546;7.906;2023-02-01T00:05:36;3.60;99.90
20057;DHT22;10189;49.546;7.906;2023-02-01T00:08:02;3.60;99.90
20057;DHT22;10189;49.546;7.906;2023-02-01T00:10:28;3.60;99.90
20057;DHT22;10189;49.546;7.906;2023-02-01T00:12:54;3.60;99.90
20057;DHT22;10189;49.546;7.906;2023-02-01T00:15:20;3.60;99.90
20057;DHT22;10189;49.546;7.906;2023-02-01T00:17:46;3.60;99.90
20057;DHT22;10189;49.546;7.906;2023-02-01T00:20:12;3.60;99.90
20057;DHT22;10189;49.546;7.906;2023-02-01T00:22:37;3.60;99.90
20057;DHT22;10189;49.546;7.906;2023-02-01T00:25:04;3.60;99.90
20057;DHT22;10189;49.546;7.906;2023-02-01T00:27:30;3.60;99.90
20057;DHT22;10189;49.546;7.906;2023-02-01T00:29:56;3.60;99.90
20057;DHT22;10189;49.546;7.906;2023-02-01T00:32:21;3.60;99.90
20057;DHT22;10189;49.546;7.906;2023-02-01T00:34:47;3.60;99.90
20057;DHT22;10189;49.546;7.906;2023-02-01T00:37:13;3.60;99.90
20057;DHT22;10189;49.546;7.906;2023-02-01T00:39:39;3.60;99.90
20057;DHT22;10189;49.546;7.906;2023-02-01T00:42:05;3.70;99.90
20057;DHT22;10189;49.546;7.906;2023-02-01T00:44:31;3.70;99.90
20057;DHT22;10189;49.546;7.906;2023-02-01T00:47:00;3.70;99.90
20057;DHT22;10189;49.546;7.906;2023-02-01T00:49:29;3.70;99.90
20057;DHT22;10189;49.546;7.906;2023-02-01T00:51:55;3.70;99.90
20057;DHT22;10189;49.546;7.906;2023-02-01T00:54:21;3.70;99.90
20057;DHT22;10189;49.546;7.906;2023-02-01T00:56:47;3.70;99.90
20057;DHT22;10189;49.546;7.906;2023-02-01T00:59:13;3.70;99.90
20057;DHT22;10189;49.546;7.906;2023-02-01T01:01:39;3.70;99.90
20057;DHT22;10189;49.546;7.906;2023-02-01T01:04:04;3.70;99.90
20057;DHT22;10189;49.546;7.906;2023-02-01T01:06:32;3.70;99.90
20057;DHT22;10189;49.546;7.906;2023-02-01T01:09:00;3.70;99.90
20057;DHT22;10189;49.546;7.906;2023-02-01T01:11:30;3.70;99.90
20057;DHT22;10189;49.546;7.906;2023-02-01T01:13:59;3.70;99.90
20057;DHT22;10189;49.546;7.906;2023-02-01T01:16:28;3.70;99.90
20057;DHT22;10189;49.546;7.906;2023-02-01T01:18:56;3.70;99.90
20057;DHT22;10189;49.546;7.906;2023-02-01T01:21:23;3.70;99.90
20057;DHT22;10189;49.546;7.906;2023-02-01T01:23:49;3.70;99.90
20057;DHT22;10189;49.546;7.906;2023-02-01T01:26:18;3.70;99.90
20057;DHT22;10189;49.546;7.906;2023-02-01T01:28:46;3.70;99.90
20057;DHT22;10189;49.546;7.906;2023-02-01T01:31:14;3.70;99.90
20057;DHT22;10189;49.546;7.906;2023-02-01T01:33:42;3.70;99.90
20057;DHT22;10189;49.546;7.906;2023-02-01T01:36:10;3.70;99.90
20057;DHT22;10189;49.546;7.906;2023-02-01T01:38:39;3.70;99.90
20057;DHT22;10189;49.546;7.906;2023-02-01T01:41:06;3.70;99.90
20057;DHT22;10189;49.546;7.906;2023-02-01T01:43:52;3.70;99.90
20057;DHT22;10189;49.546;7.906;2023-02-01T01:46:28;3.70;99.90
20057;DHT22;10189;49.546;7.906;2023-02-01T01:49:07;3.70;99.90
20057;DHT22;10189;49.546;7.906;2023-02-01T01:51:44;3.70;99.90
20057;DHT22;10189;49.546;7.906;2023-02-01T01:54:19;3.70;99.90
20057;DHT22;10189;49.546;7.906;2023-02-01T01:56:52;3.70;99.90
20057;DHT22;10189;49.546;7.906;2023-02-01T01:59:22;3.70;99.90
20057;DHT22;10189;49.546;7.906;2023-02-01T02:01:49;3.70;99.90
20057;DHT22;10189;49.546;7.906;2023-02-01T02:04:16;3.70;99.90
20057;DHT22;10189;49.546;7.906;2023-02-01T02:09:21;3.70;99.90
20057;DHT22;10189;49.546;7.906;2023-02-01T02:11:48;3.70;99.90
20057;DHT22;10189;49.546;7.906;2023-02-01T02:14:16;3.70;99.90
20057;DHT22;10189;49.546;7.906;2023-02-01T02:19:27;3.70;99.90
20057;DHT22;10189;49.546;7.906;2023-02-01T02:22:19;3.70;99.90
20057;DHT22;10189;49.546;7.906;2023-02-01T02:45:52;3.70;99.90
20057;DHT22;10189;49.546;7.906;2023-02-01T02:49:12;3.70;99.90
20057;DHT22;10189;49.546;7.906;2023-02-01T02:52:05;3.80;99.90
20057;DHT22;10189;49.546;7.906;2023-02-01T02:54:57;3.80;99.90
20057;DHT22;10189;49.546;7.906;2023-02-01T02:57:29;3.70;99.90
20057;DHT22;10189;49.546;7.906;2023-02-01T03:00:20;3.70;99.90
20057;DHT22;10189;49.546;7.906;2023-02-01T03:03:08;3.70;99.90
20057;DHT22;10189;49.546;7.906;2023-02-01T03:05:53;3.70;99.90
20057;DHT22;10189;49.546;7.906;2023-02-01T03:16:36;3.80;99.90
20057;DHT22;10189;49.546;7.906;2023-02-01T03:19:18;3.80;99.90
20057;DHT22;10189;49.546;7.906;2023-02-01T03:21:48;3.80;99.90
20057;DHT22;10189;49.546;7.906;2023-02-01T03:29:54;3.80;99.90
20057;DHT22;10189;49.546;7.906;2023-02-01T03:32:23;3.80;99.90
20057;DHT22;10189;49.546;7.906;2023-02-01T03:34:49;3.80;99.90
20057;DHT22;10189;49.546;7.906;2023-02-01T03:37:30;3.80;99.90
20057;DHT22;10189;49.546;7.906;2023-02-01T03:40:07;3.80;99.90
20057;DHT22;10189;49.546;7.906;2023-02-01T03:42:50;3.80;99.90
20057;DHT22;10189;49.546;7.906;2023-02-01T03:45:41;3.90;99.90
20057;DHT22;10189;49.546;7.906;2023-02-01T03:48:12;3.80;99.90
20057;DHT22;10189;49.546;7.906;2023-02-01T03:50:44;3.80;99.90
20057;DHT22;10189;49.546;7.906;2023-02-01T03:53:18;3.80;99.90
20057;DHT22;10189;49.546;7.906;2023-02-01T03:55:48;3.90;99.90
20057;DHT22;10189;49.546;7.906;2023-02-01T03:58:19;3.90;99.90
20057;DHT22;10189;49.546;7.906;2023-02-01T04:00:54;3.90;99.90
20057;DHT22;10189;49.546;7.906;2023-02-01T04:03:23;3.90;99.90
20057;DHT22;10189;49.546;7.906;2023-02-01T04:05:51;3.80;99.90
20057;DHT22;10189;49.546;7.906;2023-02-01T04:08:22;3.80;99.90
20057;DHT22;10189;49.546;7.906;2023-02-01T04:10:48;3.80;99.90
20057;DHT22;10189;49.546;7.906;2023-02-01T04:13:14;3.80;99.90
20057;DHT22;10189;49.546;7.906;2023-02-01T04:15:40;3.80;99.90
20057;DHT22;10189;49.546;7.906;2023-02-01T04:18:06;3.80;99.90
20057;DHT22;10189;49.546;7.906;2023-02-01T04:20:32;3.80;99.90
20057;DHT22;10189;49.546;7.906;2023-02-01T04:22:58;3.80;99.90
20057;DHT22;10189;49.546;7.906;2023-02-01T04:25:23;3.80;99.90
20057;DHT22;10189;49.546;7.906;2023-02-01T04:27:50;3.80;99.90
20057;DHT22;10189;49.546;7.906;2023-02-01T04:30:16;3.80;99.90
20057;DHT22;10189;49.546;7.906;2023-02-01T04:32:43;3.80;99.90
20057;DHT22;10189;49.546;7.906;2023-02-01T04:35:09;3.80;99.90
20057;DHT22;10189;49.546;7.906;2023-02-01T04:37:35;3.80;99.90
20057;DHT22;10189;49.546;7.906;2023-02-01T04:40:01;3.80;99.90
20057;DHT22;10189;49.546;7.906;2023-02-01T04:42:29;3.80;99.90
20057;DHT22;10189;49.546;7.906;2023-02-01T04:44:55;3.80;99.90
20057;DHT22;10189;49.546;7.906;2023-02-01T04:47:20;3.80;99.90
20057;DHT22;10189;49.546;7.906;2023-02-01T04:49:46;3.70;99.90
20057;DHT22;10189;49.546;7.906;2023-02-01T04:52:12;3.70;99.90
20057;DHT22;10189;49.546;7.906;2023-02-01T04:54:38;3.60;99.90
20057;DHT22;10189;49.546;7.906;2023-02-01T04:57:04;3.60;99.90
20057;DHT22;10189;49.546;7.906;2023-02-01T04:59:30;3.60;99.90
20057;DHT22;10189;49.546;7.906;2023-02-01T05:01:55;3.50;99.90
20057;DHT22;10189;49.546;7.906;2023-02-01T05:04:21;3.50;99.90
20057;DHT22;10189;49.546;7.906;2023-02-01T05:06:47;3.40;99.90
20057;DHT22;10189;49.546;7.906;2023-02-01T05:09:13;3.40;99.90
20057;DHT22;10189;49.546;7.906;2023-02-01T05:11:39;3.40;99.90
20057;DHT22;10189;49.546;7.906;2023-02-01T05:14:23;3.40;99.90
20057;DHT22;10189;49.546;7.906;2023-02-01T05:16:49;3.40;99.90
20057;DHT22;10189;49.546;7.906;2023-02-01T05:19:15;3.40;99.90
20057;DHT22;10189;49.546;7.906;2023-02-01T05:21:41;3.50;99.90
20057;DHT22;10189;49.546;7.906;2023-02-01T05:24:08;3.50;99.90
20057;DHT22;10189;49.546;7.906;2023-02-01T05:26:45;3.50;99.90
20057;DHT22;10189;49.546;7.906;2023-02-01T05:29:11;3.50;99.90
20057;DHT22;10189;49.546;7.906;2023-02-01T05:31:38;3.50;99.90
20057;DHT22;10189;49.546;7.906;2023-02-01T05:34:04;3.50;99.90
20057;DHT22;10189;49.546;7.906;2023-02-01T05:36:31;3.50;99.90
20057;DHT22;10189;49.546;7.906;2023-02-01T05:38:57;3.50;99.90
20057;DHT22;10189;49.546;7.906;2023-02-01T05:41:22;3.50;99.90
20057;DHT22;10189;49.546;7.906;2023-02-01T05:43:49;3.40;99.90
20057;DHT22;10189;49.546;7.906;2023-02-01T05:46:15;3.40;99.90
20057;DHT22;10189;49.546;7.906;2023-02-01T05:48:41;3.40;99.90
20057;DHT22;10189;49.546;7.906;2023-02-01T05:51:08;3.40;99.90
20057;DHT22;10189;49.546;7.906;2023-02-01T05:53:35;3.30;99.90
20057;DHT22;10189;49.546;7.906;2023-02-01T05:56:00;3.30;99.90
20057;DHT22;10189;49.546;7.906;2023-02-01T05:58:27;3.30;99.90
20057;DHT22;10189;49.546;7.906;2023-02-01T06:00:52;3.30;99.90
20057;DHT22;10189;49.546;7.906;2023-02-01T06:03:18;3.40;99.90
20057;DHT22;10189;49.546;7.906;2023-02-01T06:05:45;3.40;99.90
20057;DHT22;10189;49.546;7.906;2023-02-01T06:08:13;3.40;99.90
20057;DHT22;10189;49.546;7.906;2023-02-01T06:10:39;3.40;99.90
20057;DHT22;10189;49.546;7.906;2023-02-01T06:13:06;3.40;99.90
20057;DHT22;10189;49.546;7.906;2023-02-01T06:15:31;3.40;99.90
20057;DHT22;10189;49.546;7.906;2023-02-01T06:17:57;3.50;99.90
20057;DHT22;10189;49.546;7.906;2023-02-01T06:20:23;3.50;99.90
20057;DHT22;10189;49.546;7.906;2023-02-01T06:22:50;3.50;99.90
20057;DHT22;10189;49.546;7.906;2023-02-01T06:25:15;3.50;99.90
20057;DHT22;10189;49.546;7.906;2023-02-01T06:27:42;3.50;99.90
20057;DHT22;10189;49.546;7.906;2023-02-01T06:30:11;3.50;99.90
20057;DHT22;10189;49.546;7.906;2023-02-01T06:32:41;3.40;99.90
20057;DHT22;10189;49.546;7.906;2023-02-01T06:35:09;3.40;99.90
20057;DHT22;10189;49.546;7.906;2023-02-01T06:37:42;3.40;99.90
20057;DHT22;10189;49.546;7.906;2023-02-01T06:40:09;3.40;99.90
20057;DHT22;10189;49.546;7.906;2023-02-01T06:42:35;3.40;99.90
20057;DHT22;10189;49.546;7.906;2023-02-01T06:45:01;3.40;99.90
20057;DHT22;10189;49.546;7.906;2023-02-01T06:47:26;3.30;99.90
20057;DHT22;10189;49.546;7.906;2023-02-01T06:49:52;3.30;99.90
20057;DHT22;10189;49.546;7.906;2023-02-01T06:52:18;3.30;99.90
20057;DHT22;10189;49.546;7.906;2023-02-01T06:54:44;3.30;99.90
20057;DHT22;10189;49.546;7.906;2023-02-01T06:57:10;3.30;99.90
20057;DHT22;10189;49.546;7.906;2023-02-01T06:59:36;3.30;99.90
20057;DHT22;10189;49.546;7.906;2023-02-01T07:02:02;3.30;99.90
20057;DHT22;10189;49.546;7.906;2023-02-01T07:04:28;3.30;99.90
20057;DHT22;10189;49.546;7.906;2023-02-01T07:06:54;3.30;99.90
20057;DHT22;10189;49.546;7.906;2023-02-01T07:09:20;3.40;99.90
20057;DHT22;10189;49.546;7.906;2023-02-01T07:11:46;3.30;99.90
20057;DHT22;10189;49.546;7.906;2023-02-01T07:14:12;3.30;99.90
20057;DHT22;10189;49.546;7.906;2023-02-01T07:16:38;3.30;99.90
20057;DHT22;10189;49.546;7.906;2023-02-01T07:19:04;3.30;99.90
20057;DHT22;10189;49.546;7.906;2023-02-01T07:21:31;3.30;99.90
20057;DHT22;10189;49.546;7.906;2023-02-01T07:23:58;3.30;99.90
20057;DHT22;10189;49.546;7.906;2023-02-01T07:26:24;3.30;99.90
20057;DHT22;10189;49.546;7.906;2023-02-01T07:28:49;3.40;99.90
20057;DHT22;10189;49.546;7.906;2023-02-01T07:31:17;3.40;99.90
20057;DHT22;10189;49.546;7.906;2023-02-01T07:33:46;3.30;99.90
20057;DHT22;10189;49.546;7.906;2023-02-01T07:36:18;3.30;99.90
20057;DHT22;10189;49.546;7.906;2023-02-01T07:38:44;3.30;99.90
20057;DHT22;10189;49.546;7.906;2023-02-01T07:41:12;3.30;99.90
20057;DHT22;10189;49.546;7.906;2023-02-01T07:43:38;3.30;99.90
20057;DHT22;10189;49.546;7.906;2023-02-01T07:46:05;3.40;99.90
20057;DHT22;10189;49.546;7.906;2023-02-01T07:48:32;3.40;99.90
20057;DHT22;10189;49.546;7.906;2023-02-01T07:51:08;3.50;99.90
20057;DHT22;10189;49.546;7.906;2023-02-01T07:53:36;3.50;99.90
20057;DHT22;10189;49.546;7.906;2023-02-01T07:56:04;3.50;99.90
20057;DHT22;10189;49.546;7.906;2023-02-01T07:58:36;3.50;99.90
20057;DHT22;10189;49.546;7.906;2023-02-01T08:01:02;3.50;99.90
20057;DHT22;10189;49.546;7.906;2023-02-01T08:03:48;3.50;99.90
20057;DHT22;10189;49.546;7.906;2023-02-01T08:06:15;3.50;99.90
20057;DHT22;10189;49.546;7.906;2023-02-01T08:08:42;3.50;99.90
20057;DHT22;10189;49.546;7.906;2023-02-01T08:11:10;3.60;99.90
20057;DHT22;10189;49.546;7.906;2023-02-01T08:13:36;3.60;99.90
20057;DHT22;10189;49.546;7.906;2023-02-01T08:16:05;3.60;99.90
20057;DHT22;10189;49.546;7.906;2023-02-01T08:18:32;3.70;99.90
20057;DHT22;10189;49.546;7.906;2023-02-01T08:21:10;3.70;99.90
20057;DHT22;10189;49.546;7.906;2023-02-01T08:23:39;3.70;99.90
20057;DHT22;10189;49.546;7.906;2023-02-01T08:28:50;3.60;99.90
20057;DHT22;10189;49.546;7.906;2023-02-01T08:31:20;3.60;99.90
20057;DHT22;10189;49.546;7.906;2023-02-01T08:33:54;3.60;99.90
20057;DHT22;10189;49.546;7.906;2023-02-01T08:36:22;3.70;99.90
20057;DHT22;10189;49.546;7.906;2023-02-01T08:38:49;3.90;98.10
20057;DHT22;10189;49.546;7.906;2023-02-01T08:41:18;4.00;97.50
20057;DHT22;10189;49.546;7.906;2023-02-01T08:43:45;4.10;96.50
20057;DHT22;10189;49.546;7.906;2023-02-01T08:46:14;4.30;95.10
20057;DHT22;10189;49.546;7.906;2023-02-01T08:48:40;4.30;93.90
20057;DHT22;10189;49.546;7.906;2023-02-01T08:51:11;4.40;92.70
20057;DHT22;10189;49.546;7.906;2023-02-01T08:53:39;4.50;91.40
20057;DHT22;10189;49.546;7.906;2023-02-01T08:56:12;4.50;90.10
20057;DHT22;10189;49.546;7.906;2023-02-01T08:58:39;4.40;90.60
20057;DHT22;10189;49.546;7.906;2023-02-01T09:01:09;4.40;91.40
20057;DHT22;10189;49.546;7.906;2023-02-01T09:03:36;4.40;90.70
20057;DHT22;10189;49.546;7.906;2023-02-01T09:06:03;4.40;91.30
20057;DHT22;10189;49.546;7.906;2023-02-01T09:08:31;4.40;90.60
20057;DHT22;10189;49.546;7.906;2023-02-01T09:10:59;4.40;90.90
20057;DHT22;10189;49.546;7.906;2023-02-01T09:13:26;4.60;90.90
20057;DHT22;10189;49.546;7.906;2023-02-01T09:15:53;4.60;90.10
20057;DHT22;10189;49.546;7.906;2023-02-01T09:18:19;4.70;88.70
20057;DHT22;10189;49.546;7.906;2023-02-01T09:20:45;4.70;88.50
20057;DHT22;10189;49.546;7.906;2023-02-01T09:23:11;4.80;88.70
20057;DHT22;10189;49.546;7.906;2023-02-01T09:25:38;4.70;88.30
20057;DHT22;10189;49.546;7.906;2023-02-01T09:28:04;4.80;87.40
20057;DHT22;10189;49.546;7.906;2023-02-01T09:30:35;4.80;87.50
20057;DHT22;10189;49.546;7.906;2023-02-01T09:33:02;4.90;87.70
20057;DHT22;10189;49.546;7.906;2023-02-01T09:35:28;5.00;85.90
20057;DHT22;10189;49.546;7.906;2023-02-01T09:37:54;4.80;85.40
20057;DHT22;10189;49.546;7.906;2023-02-01T09:40:21;4.80;86.20
20057;DHT22;10189;49.546;7.906;2023-02-01T09:43:14;4.80;86.50
20057;DHT22;10189;49.546;7.906;2023-02-01T09:46:30;4.70;86.80
20057;DHT22;10189;49.546;7.906;2023-02-01T09:49:04;4.70;87.60
20057;DHT22;10189;49.546;7.906;2023-02-01T09:51:41;4.60;87.70
20057;DHT22;10189;49.546;7.906;2023-02-01T09:57:19;4.60;87.00
20057;DHT22;10189;49.546;7.906;2023-02-01T10:00:02;4.60;87.10
20057;DHT22;10189;49.546;7.906;2023-02-01T10:02:41;4.70;86.80
20057;DHT22;10189;49.546;7.906;2023-02-01T10:05:13;4.60;86.00
20057;DHT22;10189;49.546;7.906;2023-02-01T10:10:53;4.60;86.60
20057;DHT22;10189;49.546;7.906;2023-02-01T10:13:46;4.70;85.80
20057;DHT22;10189;49.546;7.906;2023-02-01T10:16:42;4.70;85.90
20057;DHT22;10189;49.546;7.906;2023-02-01T10:22:42;4.70;84.00
20057;DHT22;10189;49.546;7.906;2023-02-01T10:25:22;4.60;83.50
20057;DHT22;10189;49.546;7.906;2023-02-01T10:28:03;4.70;84.60
20057;DHT22;10189;49.546;7.906;2023-02-01T10:30:59;4.80;85.20
20057;DHT22;10189;49.546;7.906;2023-02-01T10:33:33;4.80;83.80
20057;DHT22;10189;49.546;7.906;2023-02-01T10:39:08;4.90;83.70
20057;DHT22;10189;49.546;7.906;2023-02-01T10:41:39;4.90;83.00
20057;DHT22;10189;49.546;7.906;2023-02-01T10:44:15;5.00;83.00
20057;DHT22;10189;49.546;7.906;2023-02-01T10:46:45;5.30;82.60
20057;DHT22;10189;49.546;7.906;2023-02-01T10:55:36;5.40;79.40
20057;DHT22;10189;49.546;7.906;2023-02-01T10:58:20;5.40;79.60
20057;DHT22;10189;49.546;7.906;2023-02-01T11:00:58;5.40;79.80
20057;DHT22;10189;49.546;7.906;2023-02-01T11:05:56;5.10;79.70
20057;DHT22;10189;49.546;7.906;2023-02-01T11:08:22;5.00;79.80
20057;DHT22;10189;49.546;7.906;2023-02-01T11:11:00;4.90;79.20
20057;DHT22;10189;49.546;7.906;2023-02-01T11:13:33;4.80;79.60
20057;DHT22;10189;49.546;7.906;2023-02-01T11:16:04;4.80;80.20
20057;DHT22;10189;49.546;7.906;2023-02-01T11:18:35;4.70;81.80
20057;DHT22;10189;49.546;7.906;2023-02-01T11:21:04;4.70;81.50
20057;DHT22;10189;49.546;7.906;2023-02-01T11:23:32;4.70;82.40
20057;DHT22;10189;49.546;7.906;2023-02-01T11:26:12;4.70;83.10
20057;DHT22;10189;49.546;7.906;2023-02-01T11:28:45;4.60;82.80
20057;DHT22;10189;49.546;7.906;2023-02-01T11:31:18;4.50;83.60
20057;DHT22;10189;49.546;7.906;2023-02-01T11:33:51;4.40;83.40
20057;DHT22;10189;49.546;7.906;2023-02-01T11:36:23;4.40;83.20
20057;DHT22;10189;49.546;7.906;2023-02-01T11:41:43;4.30;84.60
20057;DHT22;10189;49.546;7.906;2023-02-01T11:44:36;4.30;85.40
20057;DHT22;10189;49.546;7.906;2023-02-01T11:47:40;4.20;85.30
20057;DHT22;10189;49.546;7.906;2023-02-01T11:50:16;4.20;85.10
20057;DHT22;10189;49.546;7.906;2023-02-01T12:11:46;4.20;85.30
20057;DHT22;10189;49.546;7.906;2023-02-01T12:14:40;4.20;85.80
20057;DHT22;10189;49.546;7.906;2023-02-01T12:27:01;4.40;84.40
20057;DHT22;10189;49.546;7.906;2023-02-01T12:35:49;4.40;83.40
20057;DHT22;10189;49.546;7.906;2023-02-01T12:41:47;4.40;83.80
20057;DHT22;10189;49.546;7.906;2023-02-01T12:44:47;4.30;84.90
20057;DHT22;10189;49.546;7.906;2023-02-01T12:53:10;4.30;84.00
20057;DHT22;10189;49.546;7.906;2023-02-01T12:55:58;4.20;84.60
20057;DHT22;10189;49.546;7.906;2023-02-01T12:58:39;4.30;84.50
20057;DHT22;10189;49.546;7.906;2023-02-01T13:01:33;4.40;84.20
20057;DHT22;10189;49.546;7.906;2023-02-01T13:04:20;4.40;83.50
20057;DHT22;10189;49.546;7.906;2023-02-01T13:07:27;4.40;83.80
20057;DHT22;10189;49.546;7.906;2023-02-01T13:13:28;4.40;84.10
20057;DHT22;10189;49.546;7.906;2023-02-01T13:16:34;4.50;83.20
20057;DHT22;10189;49.546;7.906;2023-02-01T13:22:23;4.40;83.60
20057;DHT22;10189;49.546;7.906;2023-02-01T13:25:16;4.40;83.50
20057;DHT22;10189;49.546;7.906;2023-02-01T13:27:49;4.40;82.60
20057;DHT22;10189;49.546;7.906;2023-02-01T13:30:23;4.50;82.00
20057;DHT22;10189;49.546;7.906;2023-02-01T13:41:42;4.50;81.70
20057;DHT22;10189;49.546;7.906;2023-02-01T13:44:23;4.60;81.80
20057;DHT22;10189;49.546;7.906;2023-02-01T13:47:26;4.60;81.10
20057;DHT22;10189;49.546;7.906;2023-02-01T13:49:59;4.60;81.90
20057;DHT22;10189;49.546;7.906;2023-02-01T13:52:42;4.60;81.40
20057;DHT22;10189;49.546;7.906;2023-02-01T13:55:14;4.70;81.30
20057;DHT22;10189;49.546;7.906;2023-02-01T13:57:59;4.70;81.50
20057;DHT22;10189;49.546;7.906;2023-02-01T14:03:06;4.70;80.70
20057;DHT22;10189;49.546;7.906;2023-02-01T14:10:52;4.70;80.90
20057;DHT22;10189;49.546;7.906;2023-02-01T14:23:43;5.00;77.50
20057;DHT22;10189;49.546;7.906;2023-02-01T14:26:17;5.00;76.50
20057;DHT22;10189;49.546;7.906;2023-02-01T14:29:00;4.90;78.00
20057;DHT22;10189;49.546;7.906;2023-02-01T14:37:24;4.70;78.70
20057;DHT22;10189;49.546;7.906;2023-02-01T15:06:41;4.90;78.20
20057;DHT22;10189;49.546;7.906;2023-02-01T15:09:47;5.00;78.30
20057;DHT22;10189;49.546;7.906;2023-02-01T15:12:32;5.10;77.50
20057;DHT22;10189;49.546;7.906;2023-02-01T15:17:53;5.20;77.80
20057;DHT22;10189;49.546;7.906;2023-02-01T15:20:27;5.20;77.90
20057;DHT22;10189;49.546;7.906;2023-02-01T15:22:58;5.20;77.50
20057;DHT22;10189;49.546;7.906;2023-02-01T15:25:32;5.10;78.10
20057;DHT22;10189;49.546;7.906;2023-02-01T15:28:02;5.00;78.10
20057;DHT22;10189;49.546;7.906;2023-02-01T15:30:31;4.90;78.30
20057;DHT22;10189;49.546;7.906;2023-02-01T15:33:17;4.90;78.70
20057;DHT22;10189;49.546;7.906;2023-02-01T15:35:48;4.90;78.80
20057;DHT22;10189;49.546;7.906;2023-02-01T15:38:25;4.80;79.20
20057;DHT22;10189;49.546;7.906;2023-02-01T15:41:17;4.80;78.90
20057;DHT22;10189;49.546;7.906;2023-02-01T15:46:41;4.70;79.60
20057;DHT22;10189;49.546;7.906;2023-02-01T15:49:29;4.70;79.50
20057;DHT22;10189;49.546;7.906;2023-02-01T15:52:02;4.70;80.60
20057;DHT22;10189;49.546;7.906;2023-02-01T15:57:09;4.70;80.70
20057;DHT22;10189;49.546;7.906;2023-02-01T15:59:44;4.60;81.20
20057;DHT22;10189;49.546;7.906;2023-02-01T16:02:37;4.40;81.90
20057;DHT22;10189;49.546;7.906;2023-02-01T16:05:39;4.40;82.00
20057;DHT22;10189;49.546;7.906;2023-02-01T16:10:47;4.30;83.00
20057;DHT22;10189;49.546;7.906;2023-02-01T16:13:15;4.20;83.80
20057;DHT22;10189;49.546;7.906;2023-02-01T16:15:42;4.10;84.20
20057;DHT22;10189;49.546;7.906;2023-02-01T16:18:09;4.00;84.50
20057;DHT22;10189;49.546;7.906;2023-02-01T16:20:37;4.00;84.90
20057;DHT22;10189;49.546;7.906;2023-02-01T16:23:05;3.90;85.30
20057;DHT22;10189;49.546;7.906;2023-02-01T16:25:32;4.00;85.40
20057;DHT22;10189;49.546;7.906;2023-02-01T16:27:58;4.00;85.50
20057;DHT22;10189;49.546;7.906;2023-02-01T16:30:24;4.00;85.10
20057;DHT22;10189;49.546;7.906;2023-02-01T16:32:58;4.10;85.20
20057;DHT22;10189;49.546;7.906;2023-02-01T16:35:35;4.10;84.80
20057;DHT22;10189;49.546;7.906;2023-02-01T16:38:12;4.20;84.90
20057;DHT22;10189;49.546;7.906;2023-02-01T16:40:40;4.20;84.50
20057;DHT22;10189;49.546;7.906;2023-02-01T16:43:19;4.20;85.20
20057;DHT22;10189;49.546;7.906;2023-02-01T16:45:51;4.30;84.90
20057;DHT22;10189;49.546;7.906;2023-02-01T16:48:22;4.30;85.00
20057;DHT22;10189;49.546;7.906;2023-02-01T16:50:54;4.30;84.70
20057;DHT22;10189;49.546;7.906;2023-02-01T16:53:23;4.30;84.70
20057;DHT22;10189;49.546;7.906;2023-02-01T16:55:50;4.30;84.50
20057;DHT22;10189;49.546;7.906;2023-02-01T16:58:18;4.20;84.60
20057;DHT22;10189;49.546;7.906;2023-02-01T17:00:46;4.20;84.60
20057;DHT22;10189;49.546;7.906;2023-02-01T17:03:13;4.20;84.80
20057;DHT22;10189;49.546;7.906;2023-02-01T17:06:02;4.10;84.90
20057;DHT22;10189;49.546;7.906;2023-02-01T17:08:36;4.10;84.90
20057;DHT22;10189;49.546;7.906;2023-02-01T17:11:06;4.10;85.10
20057;DHT22;10189;49.546;7.906;2023-02-01T17:13:33;4.10;84.70
20057;DHT22;10189;49.546;7.906;2023-02-01T17:16:11;4.20;84.20
20057;DHT22;10189;49.546;7.906;2023-02-01T17:18:41;4.20;84.00
20057;DHT22;10189;49.546;7.906;2023-02-01T17:21:09;4.30;84.20
20057;DHT22;10189;49.546;7.906;2023-02-01T17:23:36;4.20;84.00
20057;DHT22;10189;49.546;7.906;2023-02-01T17:26:02;4.30;83.30
20057;DHT22;10189;49.546;7.906;2023-02-01T17:28:29;4.30;83.50
20057;DHT22;10189;49.546;7.906;2023-02-01T17:30:56;4.30;83.20
20057;DHT22;10189;49.546;7.906;2023-02-01T17:33:29;4.30;83.20
20057;DHT22;10189;49.546;7.906;2023-02-01T17:36:05;4.30;82.70
20057;DHT22;10189;49.546;7.906;2023-02-01T17:38:32;4.30;82.60
20057;DHT22;10189;49.546;7.906;2023-02-01T17:40:59;4.30;82.20
20057;DHT22;10189;49.546;7.906;2023-02-01T17:43:25;4.30;82.30
20057;DHT22;10189;49.546;7.906;2023-02-01T17:48:20;4.30;82.10
20057;DHT22;10189;49.546;7.906;2023-02-01T17:50:50;4.20;82.50
20057;DHT22;10189;49.546;7.906;2023-02-01T17:53:24;4.10;82.90
20057;DHT22;10189;49.546;7.906;2023-02-01T17:55:51;4.10;83.00
20057;DHT22;10189;49.546;7.906;2023-02-01T17:58:18;4.10;83.00
20057;DHT22;10189;49.546;7.906;2023-02-01T18:00:46;4.00;83.40
20057;DHT22;10189;49.546;7.906;2023-02-01T18:03:27;4.00;83.80
20057;DHT22;10189;49.546;7.906;2023-02-01T18:05:57;3.90;84.30
20057;DHT22;10189;49.546;7.906;2023-02-01T18:08:29;4.00;84.40
20057;DHT22;10189;49.546;7.906;2023-02-01T18:10:59;4.00;84.40
20057;DHT22;10189;49.546;7.906;2023-02-01T18:13:30;4.00;84.70
20057;DHT22;10189;49.546;7.906;2023-02-01T18:15:57;4.00;84.60
20057;DHT22;10189;49.546;7.906;2023-02-01T18:18:24;4.10;84.80
20057;DHT22;10189;49.546;7.906;2023-02-01T18:20:51;4.10;84.90
20057;DHT22;10189;49.546;7.906;2023-02-01T18:23:19;4.10;85.00
20057;DHT22;10189;49.546;7.906;2023-02-01T18:25:47;4.00;85.50
20057;DHT22;10189;49.546;7.906;2023-02-01T18:28:15;3.90;85.80
20057;DHT22;10189;49.546;7.906;2023-02-01T18:30:48;3.90;86.00
20057;DHT22;10189;49.546;7.906;2023-02-01T18:33:17;3.90;86.10
20057;DHT22;10189;49.546;7.906;2023-02-01T18:35:44;3.90;86.40
20057;DHT22;10189;49.546;7.906;2023-02-01T18:38:10;3.90;86.30
20057;DHT22;10189;49.546;7.906;2023-02-01T18:40:49;3.90;86.40
20057;DHT22;10189;49.546;7.906;2023-02-01T18:43:20;3.80;86.70
20057;DHT22;10189;49.546;7.906;2023-02-01T18:45:47;3.80;87.00
20057;DHT22;10189;49.546;7.906;2023-02-01T18:48:15;3.80;87.20
20057;DHT22;10189;49.546;7.906;2023-02-01T18:50:44;3.90;87.00
20057;DHT22;10189;49.546;7.906;2023-02-01T18:53:17;4.00;87.00
20057;DHT22;10189;49.546;7.906;2023-02-01T18:55:48;4.10;86.50
20057;DHT22;10189;49.546;7.906;2023-02-01T18:58:15;4.10;86.60
20057;DHT22;10189;49.546;7.906;2023-02-01T19:00:43;4.10;86.90
20057;DHT22;10189;49.546;7.906;2023-02-01T19:03:14;4.20;86.50
20057;DHT22;10189;49.546;7.906;2023-02-01T19:05:41;4.10;86.60
20057;DHT22;10189;49.546;7.906;2023-02-01T19:08:07;4.20;86.40
20057;DHT22;10189;49.546;7.906;2023-02-01T19:10:33;4.20;86.30
20057;DHT22;10189;49.546;7.906;2023-02-01T19:13:03;4.20;86.80
20057;DHT22;10189;49.546;7.906;2023-02-01T19:15:30;4.20;86.50
20057;DHT22;10189;49.546;7.906;2023-02-01T19:17:57;4.20;86.50
20057;DHT22;10189;49.546;7.906;2023-02-01T19:20:25;4.30;86.80
20057;DHT22;10189;49.546;7.906;2023-02-01T19:22:52;4.30;86.60